sensor_id;sensor_type;location;lat;lon;timestamp;pressure;altitude;pressure_sealevel;temperature;humidity
2785;BME280;57944;48.722;9.316;2023-04-06T00:02:10;98298.66;;;-1.25;100.00
2785;BME280;57944;48.722;9.316;2023-04-06T00:04:40;98297.97;;;-1.27;100.00
2785;BME280;57944;48.722;9.316;2023-04-06T00:07:10;98292.25;;;-1.40;100.00
2785;BME280;57944;48.722;9.316;2023-04-06T00:09:43;98291.22;;;-1.38;100.00
2785;BME280;57944;48.722;9.316;2023-04-06T00:12:14;98291.31;;;-1.50;100.00
2785;BME280;57944;48.722;9.316;2023-04-06T00:14:44;98299.16;;;-1.68;100.00
2785;BME280;57944;48.722;9.316;2023-04-06T00:17:14;98297.94;;;-1.62;100.00
2785;BME280;57944;48.722;9.316;2023-04-06T00:19:44;98294.97;;;-1.67;100.00
2785;BME280;57944;48.722;9.316;2023-04-06T00:22:14;98294.44;;;-1.60;100.00
2785;BME280;57944;48.722;9.316;2023-04-06T00:24:47;98291.72;;;-1.57;100.00
2785;BME280;57944;48.722;9.316;2023-04-06T00:27:17;98292.38;;;-1.66;100.00
2785;BME280;57944;48.722;9.316;2023-04-06T00:29:48;98287.22;;;-1.75;100.00
2785;BME280;57944;48.722;9.316;2023-04-06T00:32:19;98282.75;;;-1.83;100.00
2785;BME280;57944;48.722;9.316;2023-04-06T00:34:50;98284.56;;;-1.85;100.00
2785;BME280;57944;48.722;9.316;2023-04-06T00:37:20;98284.13;;;-1.79;100.00
2785;BME280;57944;48.722;9.316;2023-04-06T00:39:53;98285.69;;;-1.89;100.00
2785;BME280;57944;48.722;9.316;2023-04-06T00:42:23;98287.22;;;-1.99;100.00
2785;BME280;57944;48.722;9.316;2023-04-06T00:44:56;98289.13;;;-2.03;100.00
2785;BME280;57944;48.722;9.316;2023-04-06T00:47:26;98277.09;;;-2.22;100.00
2785;BME280;57944;48.722;9.316;2023-04-06T00:49:57;98284.78;;;-2.25;100.00
2785;BME280;57944;48.722;9.316;2023-04-06T00:52:27;98281.34;;;-2.11;100.00
2785;BME280;57944;48.722;9.316;2023-04-06T00:55:00;98280.97;;;-1.81;100.00
2785;BME280;57944;48.722;9.316;2023-04-06T00:57:31;98275.75;;;-1.78;100.00
2785;BME280;57944;48.722;9.316;2023-04-06T01:00:02;98276.16;;;-1.84;100.00
2785;BME280;57944;48.722;9.316;2023-04-06T01:02:33;98277.31;;;-2.01;100.00
2785;BME280;57944;48.722;9.316;2023-04-06T01:05:04;98272.22;;;-1.99;100.00
2785;BME280;57944;48.722;9.316;2023-04-06T01:07:47;98272.75;;;-1.83;100.00
2785;BME280;57944;48.722;9.316;2023-04-06T01:10:28;98263.25;;;-1.78;100.00
2785;BME280;57944;48.722;9.316;2023-04-06T01:13:06;98269.56;;;-1.85;100.00
2785;BME280;57944;48.722;9.316;2023-04-06T01:15:44;98262.28;;;-1.88;100.00
2785;BME280;57944;48.722;9.316;2023-04-06T01:18:25;98255.16;;;-2.06;100.00
2785;BME280;57944;48.722;9.316;2023-04-06T01:21:09;98254.97;;;-2.15;100.00
2785;BME280;57944;48.722;9.316;2023-04-06T01:24:04;98258.13;;;-2.37;100.00
2785;BME280;57944;48.722;9.316;2023-04-06T01:26:51;98263.97;;;-2.50;100.00
2785;BME280;57944;48.722;9.316;2023-04-06T01:29:21;98263.03;;;-2.49;100.00
2785;BME280;57944;48.722;9.316;2023-04-06T01:31:52;98259.75;;;-2.49;100.00
2785;BME280;57944;48.722;9.316;2023-04-06T01:34:22;98258.88;;;-2.61;100.00
2785;BME280;57944;48.722;9.316;2023-04-06T01:36:55;98257.88;;;-2.71;100.00
2785;BME280;57944;48.722;9.316;2023-04-06T01:39:31;98254.22;;;-2.78;100.00
2785;BME280;57944;48.722;9.316;2023-04-06T01:42:04;98253.53;;;-2.80;100.00
2785;BME280;57944;48.722;9.316;2023-04-06T01:44:37;98259.22;;;-2.78;100.00
2785;BME280;57944;48.722;9.316;2023-04-06T01:47:11;98251.63;;;-2.89;100.00
2785;BME280;57944;48.722;9.316;2023-04-06T01:49:42;98250.53;;;-2.85;100.00
2785;BME280;57944;48.722;9.316;2023-04-06T01:52:12;98254.09;;;-2.77;100.00
2785;BME280;57944;48.722;9.316;2023-04-06T01:54:53;98251.28;;;-2.59;100.00
2785;BME280;57944;48.722;9.316;2023-04-06T01:57:45;98241.84;;;-2.67;100.00
2785;BME280;57944;48.722;9.316;2023-04-06T02:00:28;98249.56;;;-2.46;100.00
2785;BME280;57944;48.722;9.316;2023-04-06T02:02:59;98246.72;;;-2.65;100.00
2785;BME280;57944;48.722;9.316;2023-04-06T02:05:31;98250.69;;;-2.63;100.00
2785;BME280;57944;48.722;9.316;2023-04-06T02:11:52;98244.91;;;-2.76;100.00
2785;BME280;57944;48.722;9.316;2023-04-06T02:14:25;98245.34;;;-2.82;100.00
2785;BME280;57944;48.722;9.316;2023-04-06T02:16:59;98248.53;;;-2.80;100.00
2785;BME280;57944;48.722;9.316;2023-04-06T02:19:29;98246.13;;;-2.82;100.00
2785;BME280;57944;48.722;9.316;2023-04-06T02:21:59;98250.53;;;-2.73;100.00
2785;BME280;57944;48.722;9.316;2023-04-06T02:24:29;98247.03;;;-2.70;100.00
2785;BME280;57944;48.722;9.316;2023-04-06T02:27:03;98243.91;;;-2.74;100.00
2785;BME280;57944;48.722;9.316;2023-04-06T02:29:33;98235.06;;;-2.90;100.00
2785;BME280;57944;48.722;9.316;2023-04-06T02:32:04;98235.97;;;-2.92;100.00
2785;BME280;57944;48.722;9.316;2023-04-06T02:34:34;98234.75;;;-2.99;100.00
2785;BME280;57944;48.722;9.316;2023-04-06T02:37:05;98237.75;;;-2.94;100.00
2785;BME280;57944;48.722;9.316;2023-04-06T02:39:36;98238.66;;;-3.07;100.00
2785;BME280;57944;48.722;9.316;2023-04-06T02:42:11;98237.16;;;-3.10;100.00
2785;BME280;57944;48.722;9.316;2023-04-06T02:44:44;98236.94;;;-3.07;100.00
2785;BME280;57944;48.722;9.316;2023-04-06T02:47:15;98234.34;;;-3.18;100.00
2785;BME280;57944;48.722;9.316;2023-04-06T02:49:48;98232.97;;;-3.09;100.00
2785;BME280;57944;48.722;9.316;2023-04-06T02:52:19;98226.38;;;-3.23;100.00
2785;BME280;57944;48.722;9.316;2023-04-06T02:54:49;98226.56;;;-3.26;100.00
2785;BME280;57944;48.722;9.316;2023-04-06T02:57:28;98226.56;;;-3.26;100.00
2785;BME280;57944;48.722;9.316;2023-04-06T02:59:59;98228.75;;;-3.34;100.00
2785;BME280;57944;48.722;9.316;2023-04-06T03:02:37;98229.56;;;-3.34;100.00
2785;BME280;57944;48.722;9.316;2023-04-06T03:05:11;98220.81;;;-3.40;100.00
2785;BME280;57944;48.722;9.316;2023-04-06T03:07:43;98230.06;;;-3.42;100.00
2785;BME280;57944;48.722;9.316;2023-04-06T03:10:21;98223.19;;;-3.38;100.00
2785;BME280;57944;48.722;9.316;2023-04-06T03:12:54;98222.34;;;-3.51;100.00
2785;BME280;57944;48.722;9.316;2023-04-06T03:15:39;98215.88;;;-3.54;100.00
2785;BME280;57944;48.722;9.316;2023-04-06T03:18:14;98223.34;;;-3.54;100.00
2785;BME280;57944;48.722;9.316;2023-04-06T03:20:47;98224.06;;;-3.52;100.00
2785;BME280;57944;48.722;9.316;2023-04-06T03:23:19;98231.34;;;-3.49;100.00
2785;BME280;57944;48.722;9.316;2023-04-06T03:25:53;98225.66;;;-3.51;100.00
2785;BME280;57944;48.722;9.316;2023-04-06T03:28:26;98226.34;;;-3.62;100.00
2785;BME280;57944;48.722;9.316;2023-04-06T03:30:59;98227.59;;;-3.69;100.00
2785;BME280;57944;48.722;9.316;2023-04-06T03:33:42;98224.72;;;-3.63;100.00
2785;BME280;57944;48.722;9.316;2023-04-06T03:36:25;98228.94;;;-3.38;100.00
2785;BME280;57944;48.722;9.316;2023-04-06T03:38:57;98231.56;;;-3.26;100.00
2785;BME280;57944;48.722;9.316;2023-04-06T03:41:30;98235.31;;;-3.46;100.00
2785;BME280;57944;48.722;9.316;2023-04-06T03:44:13;98234.94;;;-3.40;100.00
2785;BME280;57944;48.722;9.316;2023-04-06T03:46:44;98238.28;;;-3.54;100.00
2785;BME280;57944;48.722;9.316;2023-04-06T03:49:15;98235.03;;;-3.42;100.00
2785;BME280;57944;48.722;9.316;2023-04-06T03:51:49;98237.47;;;-3.02;100.00
2785;BME280;57944;48.722;9.316;2023-04-06T03:54:19;98240.25;;;-2.94;100.00
2785;BME280;57944;48.722;9.316;2023-04-06T03:56:49;98241.53;;;-3.13;100.00
2785;BME280;57944;48.722;9.316;2023-04-06T03:59:22;98248.63;;;-3.07;100.00
2785;BME280;57944;48.722;9.316;2023-04-06T04:01:52;98244.72;;;-3.24;100.00
2785;BME280;57944;48.722;9.316;2023-04-06T04:04:23;98248.00;;;-3.24;100.00
2785;BME280;57944;48.722;9.316;2023-04-06T04:06:53;98253.31;;;-3.03;100.00
2785;BME280;57944;48.722;9.316;2023-04-06T04:09:23;98256.91;;;-3.07;100.00
2785;BME280;57944;48.722;9.316;2023-04-06T04:11:55;98259.69;;;-3.24;100.00
2785;BME280;57944;48.722;9.316;2023-04-06T04:14:28;98251.91;;;-3.32;100.00
2785;BME280;57944;48.722;9.316;2023-04-06T04:16:58;98259.25;;;-3.44;100.00
2785;BME280;57944;48.722;9.316;2023-04-06T04:19:28;98254.69;;;-3.37;100.00
2785;BME280;57944;48.722;9.316;2023-04-06T04:21:59;98264.03;;;-3.41;100.00
2785;BME280;57944;48.722;9.316;2023-04-06T04:24:34;98265.66;;;-3.40;100.00
2785;BME280;57944;48.722;9.316;2023-04-06T04:27:04;98264.16;;;-3.42;100.00
2785;BME280;57944;48.722;9.316;2023-04-06T04:29:37;98265.81;;;-3.55;100.00
2785;BME280;57944;48.722;9.316;2023-04-06T04:32:10;98266.59;;;-3.55;100.00
2785;BME280;57944;48.722;9.316;2023-04-06T04:34:40;98267.34;;;-3.27;100.00
2785;BME280;57944;48.722;9.316;2023-04-06T04:37:20;98267.84;;;-3.35;100.00
2785;BME280;57944;48.722;9.316;2023-04-06T04:39:54;98270.06;;;-3.05;100.00
2785;BME280;57944;48.722;9.316;2023-04-06T04:42:24;98273.97;;;-2.75;100.00
2785;BME280;57944;48.722;9.316;2023-04-06T04:45:00;98277.84;;;-2.71;100.00
2785;BME280;57944;48.722;9.316;2023-04-06T04:47:35;98274.34;;;-2.56;100.00
2785;BME280;57944;48.722;9.316;2023-04-06T04:50:07;98274.44;;;-2.44;100.00
2785;BME280;57944;48.722;9.316;2023-04-06T04:52:41;98276.94;;;-2.44;100.00
2785;BME280;57944;48.722;9.316;2023-04-06T04:55:19;98277.44;;;-2.52;100.00
2785;BME280;57944;48.722;9.316;2023-04-06T04:57:53;98271.69;;;-2.78;100.00
2785;BME280;57944;48.722;9.316;2023-04-06T05:00:36;98271.66;;;-2.91;100.00
2785;BME280;57944;48.722;9.316;2023-04-06T05:03:07;98269.66;;;-2.99;100.00
2785;BME280;57944;48.722;9.316;2023-04-06T05:05:39;98276.47;;;-3.01;100.00
2785;BME280;57944;48.722;9.316;2023-04-06T05:08:11;98273.84;;;-2.99;100.00
2785;BME280;57944;48.722;9.316;2023-04-06T05:10:45;98276.94;;;-2.96;100.00
2785;BME280;57944;48.722;9.316;2023-04-06T05:13:17;98275.06;;;-2.79;100.00
2785;BME280;57944;48.722;9.316;2023-04-06T05:15:51;98280.78;;;-2.28;100.00
2785;BME280;57944;48.722;9.316;2023-04-06T05:18:31;98283.88;;;-2.24;100.00
2785;BME280;57944;48.722;9.316;2023-04-06T05:21:02;98285.22;;;-2.07;100.00
2785;BME280;57944;48.722;9.316;2023-04-06T05:23:54;98290.81;;;-1.80;100.00
2785;BME280;57944;48.722;9.316;2023-04-06T05:26:26;98297.25;;;-1.88;100.00
2785;BME280;57944;48.722;9.316;2023-04-06T05:29:02;98298.63;;;-2.08;100.00
2785;BME280;57944;48.722;9.316;2023-04-06T05:31:38;98308.75;;;-1.98;100.00
2785;BME280;57944;48.722;9.316;2023-04-06T05:34:09;98309.84;;;-1.90;100.00
2785;BME280;57944;48.722;9.316;2023-04-06T05:36:39;98303.88;;;-1.76;100.00
2785;BME280;57944;48.722;9.316;2023-04-06T05:39:23;98306.72;;;-1.57;100.00
2785;BME280;57944;48.722;9.316;2023-04-06T05:41:53;98303.44;;;-1.22;100.00
2785;BME280;57944;48.722;9.316;2023-04-06T05:44:40;98308.22;;;-1.19;100.00
2785;BME280;57944;48.722;9.316;2023-04-06T05:47:16;98308.03;;;-0.93;100.00
2785;BME280;57944;48.722;9.316;2023-04-06T05:49:52;98303.53;;;-0.43;100.00
2785;BME280;57944;48.722;9.316;2023-04-06T05:52:31;98313.00;;;0.31;100.00
2785;BME280;57944;48.722;9.316;2023-04-06T05:55:01;98313.97;;;1.14;100.00
2785;BME280;57944;48.722;9.316;2023-04-06T05:57:32;98313.94;;;2.06;100.00
2785;BME280;57944;48.722;9.316;2023-04-06T06:00:04;98319.94;;;2.82;100.00
2785;BME280;57944;48.722;9.316;2023-04-06T06:02:49;98314.13;;;3.39;100.00
2785;BME280;57944;48.722;9.316;2023-04-06T06:05:25;98321.31;;;3.98;100.00
2785;BME280;57944;48.722;9.316;2023-04-06T06:07:59;98319.81;;;4.59;100.00
2785;BME280;57944;48.722;9.316;2023-04-06T06:10:30;98325.84;;;5.02;100.00
2785;BME280;57944;48.722;9.316;2023-04-06T06:13:01;98333.94;;;5.40;99.63
2785;BME280;57944;48.722;9.316;2023-04-06T06:15:32;98330.81;;;5.80;89.60
2785;BME280;57944;48.722;9.316;2023-04-06T06:18:05;98329.53;;;6.11;82.27
2785;BME280;57944;48.722;9.316;2023-04-06T06:20:36;98330.63;;;6.08;83.37
2785;BME280;57944;48.722;9.316;2023-04-06T06:23:07;98328.66;;;6.61;75.81
2785;BME280;57944;48.722;9.316;2023-04-06T06:25:37;98329.78;;;6.91;77.65
2785;BME280;57944;48.722;9.316;2023-04-06T06:28:08;98330.25;;;6.94;81.86
2785;BME280;57944;48.722;9.316;2023-04-06T06:30:39;98331.03;;;6.95;68.00
2785;BME280;57944;48.722;9.316;2023-04-06T06:33:12;98333.75;;;6.77;66.46
2785;BME280;57944;48.722;9.316;2023-04-06T06:35:43;98331.44;;;7.31;64.36
2785;BME280;57944;48.722;9.316;2023-04-06T06:38:14;98333.47;;;7.92;58.70
2785;BME280;57944;48.722;9.316;2023-04-06T06:40:46;98328.31;;;8.08;60.41
2785;BME280;57944;48.722;9.316;2023-04-06T06:43:16;98334.44;;;8.22;58.89
2785;BME280;57944;48.722;9.316;2023-04-06T06:45:55;98333.47;;;8.23;57.62
2785;BME280;57944;48.722;9.316;2023-04-06T06:48:28;98334.81;;;8.34;57.79
2785;BME280;57944;48.722;9.316;2023-04-06T06:50:59;98331.88;;;8.53;56.50
2785;BME280;57944;48.722;9.316;2023-04-06T06:53:29;98332.28;;;8.34;56.92
2785;BME280;57944;48.722;9.316;2023-04-06T06:55:59;98328.47;;;8.61;54.00
2785;BME280;57944;48.722;9.316;2023-04-06T06:58:30;98337.59;;;8.93;55.39
2785;BME280;57944;48.722;9.316;2023-04-06T07:01:00;98335.97;;;9.15;53.18
2785;BME280;57944;48.722;9.316;2023-04-06T07:03:36;98339.38;;;8.69;55.75
2785;BME280;57944;48.722;9.316;2023-04-06T07:06:06;98338.72;;;8.90;54.59
2785;BME280;57944;48.722;9.316;2023-04-06T07:08:39;98343.94;;;9.42;52.26
2785;BME280;57944;48.722;9.316;2023-04-06T07:11:09;98344.22;;;9.76;49.81
2785;BME280;57944;48.722;9.316;2023-04-06T07:13:39;98348.72;;;9.45;51.18
2785;BME280;57944;48.722;9.316;2023-04-06T07:16:11;98351.13;;;9.08;52.84
2785;BME280;57944;48.722;9.316;2023-04-06T07:18:43;98346.41;;;9.35;54.41
2785;BME280;57944;48.722;9.316;2023-04-06T07:21:14;98338.88;;;9.56;51.31
2785;BME280;57944;48.722;9.316;2023-04-06T07:23:44;98344.81;;;9.63;53.67
2785;BME280;57944;48.722;9.316;2023-04-06T07:26:16;98344.13;;;9.70;49.85
2785;BME280;57944;48.722;9.316;2023-04-06T07:28:46;98335.00;;;9.60;51.51
2785;BME280;57944;48.722;9.316;2023-04-06T07:31:17;98344.06;;;9.33;51.57
2785;BME280;57944;48.722;9.316;2023-04-06T07:33:50;98339.91;;;9.17;53.43
2785;BME280;57944;48.722;9.316;2023-04-06T07:36:20;98340.34;;;9.21;50.13
2785;BME280;57944;48.722;9.316;2023-04-06T07:38:51;98342.09;;;9.06;51.77
2785;BME280;57944;48.722;9.316;2023-04-06T07:41:22;98337.13;;;9.42;52.66
2785;BME280;57944;48.722;9.316;2023-04-06T07:43:53;98339.75;;;9.78;50.70
2785;BME280;57944;48.722;9.316;2023-04-06T07:46:24;98331.84;;;10.67;48.49
2785;BME280;57944;48.722;9.316;2023-04-06T07:48:57;98336.69;;;11.12;47.48
2785;BME280;57944;48.722;9.316;2023-04-06T07:51:30;98330.84;;;11.94;45.85
2785;BME280;57944;48.722;9.316;2023-04-06T07:54:01;98327.94;;;12.04;45.71
2785;BME280;57944;48.722;9.316;2023-04-06T07:56:31;98324.88;;;12.62;43.21
2785;BME280;57944;48.722;9.316;2023-04-06T07:59:02;98327.00;;;13.38;41.45
2785;BME280;57944;48.722;9.316;2023-04-06T08:01:32;98327.78;;;13.38;42.18
2785;BME280;57944;48.722;9.316;2023-04-06T08:04:05;98326.63;;;13.86;41.70
2785;BME280;57944;48.722;9.316;2023-04-06T08:06:37;98328.69;;;14.72;39.23
2785;BME280;57944;48.722;9.316;2023-04-06T08:09:08;98330.88;;;15.56;37.62
2785;BME280;57944;48.722;9.316;2023-04-06T08:11:38;98333.81;;;16.62;35.22
2785;BME280;57944;48.722;9.316;2023-04-06T08:14:09;98337.44;;;16.72;35.54
2785;BME280;57944;48.722;9.316;2023-04-06T08:16:39;98333.97;;;17.26;34.36
2785;BME280;57944;48.722;9.316;2023-04-06T08:19:12;98331.97;;;17.04;33.83
2785;BME280;57944;48.722;9.316;2023-04-06T08:21:44;98330.81;;;18.16;33.19
2785;BME280;57944;48.722;9.316;2023-04-06T08:24:14;98339.47;;;19.06;32.22
2785;BME280;57944;48.722;9.316;2023-04-06T08:26:44;98337.38;;;19.47;30.13
2785;BME280;57944;48.722;9.316;2023-04-06T08:29:14;98335.13;;;20.00;28.01
2785;BME280;57944;48.722;9.316;2023-04-06T08:31:45;98333.69;;;19.21;28.21
2785;BME280;57944;48.722;9.316;2023-04-06T08:34:17;98343.16;;;18.93;28.31
2785;BME280;57944;48.722;9.316;2023-04-06T08:36:48;98338.91;;;19.65;28.10
2785;BME280;57944;48.722;9.316;2023-04-06T08:39:19;98338.13;;;19.04;28.87
2785;BME280;57944;48.722;9.316;2023-04-06T08:41:52;98329.25;;;19.38;28.87
2785;BME280;57944;48.722;9.316;2023-04-06T08:44:24;98335.88;;;19.29;29.73
2785;BME280;57944;48.722;9.316;2023-04-06T08:46:54;98329.34;;;19.05;28.47
2785;BME280;57944;48.722;9.316;2023-04-06T08:49:28;98330.84;;;19.39;28.51
2785;BME280;57944;48.722;9.316;2023-04-06T08:51:59;98322.19;;;20.27;27.30
2785;BME280;57944;48.722;9.316;2023-04-06T08:54:29;98327.09;;;19.30;28.43
2785;BME280;57944;48.722;9.316;2023-04-06T08:57:01;98322.41;;;19.49;28.07
2785;BME280;57944;48.722;9.316;2023-04-06T08:59:32;98323.00;;;20.33;27.87
2785;BME280;57944;48.722;9.316;2023-04-06T09:02:04;98313.47;;;20.06;28.32
2785;BME280;57944;48.722;9.316;2023-04-06T09:04:38;98309.69;;;20.19;27.98
2785;BME280;57944;48.722;9.316;2023-04-06T09:07:08;98311.16;;;20.37;26.94
2785;BME280;57944;48.722;9.316;2023-04-06T09:09:38;98309.75;;;20.24;27.24
2785;BME280;57944;48.722;9.316;2023-04-06T09:12:25;98307.59;;;20.80;27.24
2785;BME280;57944;48.722;9.316;2023-04-06T09:14:57;98296.81;;;21.51;26.16
2785;BME280;57944;48.722;9.316;2023-04-06T09:17:28;98305.72;;;22.12;25.76
2785;BME280;57944;48.722;9.316;2023-04-06T09:20:03;98306.53;;;22.22;24.47
2785;BME280;57944;48.722;9.316;2023-04-06T09:22:38;98298.47;;;22.34;24.86
2785;BME280;57944;48.722;9.316;2023-04-06T09:25:09;98306.81;;;22.57;25.10
2785;BME280;57944;48.722;9.316;2023-04-06T09:27:40;98310.41;;;22.66;25.31
2785;BME280;57944;48.722;9.316;2023-04-06T09:30:12;98297.91;;;24.03;24.01
2785;BME280;57944;48.722;9.316;2023-04-06T09:32:46;98301.50;;;23.73;24.07
2785;BME280;57944;48.722;9.316;2023-04-06T09:35:19;98297.44;;;22.20;25.66
2785;BME280;57944;48.722;9.316;2023-04-06T09:37:51;98295.91;;;22.24;24.75
2785;BME280;57944;48.722;9.316;2023-04-06T09:40:22;98291.94;;;21.85;25.46
2785;BME280;57944;48.722;9.316;2023-04-06T09:42:53;98287.53;;;22.73;24.04
2785;BME280;57944;48.722;9.316;2023-04-06T09:45:26;98291.16;;;22.77;25.13
2785;BME280;57944;48.722;9.316;2023-04-06T09:47:59;98284.53;;;23.26;23.81
2785;BME280;57944;48.722;9.316;2023-04-06T09:50:33;98277.81;;;23.14;24.92
2785;BME280;57944;48.722;9.316;2023-04-06T09:53:05;98283.84;;;23.00;24.33
2785;BME280;57944;48.722;9.316;2023-04-06T09:55:36;98285.44;;;22.80;24.26
2785;BME280;57944;48.722;9.316;2023-04-06T09:58:10;98276.88;;;23.50;24.04
2785;BME280;57944;48.722;9.316;2023-04-06T10:00:44;98277.25;;;23.23;23.70
2785;BME280;57944;48.722;9.316;2023-04-06T10:03:21;98272.00;;;22.01;23.18
2785;BME280;57944;48.722;9.316;2023-04-06T10:05:59;98268.69;;;23.17;22.97
2785;BME280;57944;48.722;9.316;2023-04-06T10:08:34;98270.31;;;22.92;22.09
2785;BME280;57944;48.722;9.316;2023-04-06T10:11:07;98271.59;;;24.39;21.77
2785;BME280;57944;48.722;9.316;2023-04-06T10:13:38;98281.25;;;22.89;22.00
2785;BME280;57944;48.722;9.316;2023-04-06T10:16:09;98273.16;;;23.61;22.24
2785;BME280;57944;48.722;9.316;2023-04-06T10:18:42;98264.53;;;24.10;20.55
2785;BME280;57944;48.722;9.316;2023-04-06T10:21:20;98268.91;;;23.80;20.88
2785;BME280;57944;48.722;9.316;2023-04-06T10:23:55;98272.50;;;22.34;21.30
2785;BME280;57944;48.722;9.316;2023-04-06T10:26:27;98266.72;;;22.99;20.99
2785;BME280;57944;48.722;9.316;2023-04-06T10:29:04;98272.97;;;23.52;20.68
2785;BME280;57944;48.722;9.316;2023-04-06T10:31:41;98258.38;;;23.96;20.34
2785;BME280;57944;48.722;9.316;2023-04-06T10:34:13;98265.91;;;23.58;21.79
2785;BME280;57944;48.722;9.316;2023-04-06T10:36:46;98269.31;;;23.48;20.83
2785;BME280;57944;48.722;9.316;2023-04-06T10:39:24;98271.69;;;23.45;20.88
2785;BME280;57944;48.722;9.316;2023-04-06T10:41:54;98257.34;;;22.97;20.62
2785;BME280;57944;48.722;9.316;2023-04-06T10:44:25;98266.19;;;22.91;21.86
2785;BME280;57944;48.722;9.316;2023-04-06T10:46:56;98258.84;;;23.14;21.25
2785;BME280;57944;48.722;9.316;2023-04-06T10:52:00;98250.03;;;22.94;20.83
2785;BME280;57944;48.722;9.316;2023-04-06T10:54:31;98251.66;;;22.85;21.34
2785;BME280;57944;48.722;9.316;2023-04-06T10:57:01;98246.94;;;23.03;20.29
2785;BME280;57944;48.722;9.316;2023-04-06T10:59:31;98246.25;;;22.51;21.83
2785;BME280;57944;48.722;9.316;2023-04-06T11:02:02;98244.31;;;21.24;21.42
2785;BME280;57944;48.722;9.316;2023-04-06T11:04:33;98242.63;;;20.97;21.72
2785;BME280;57944;48.722;9.316;2023-04-06T11:07:05;98245.47;;;18.90;24.76
2785;BME280;57944;48.722;9.316;2023-04-06T11:09:35;98236.00;;;17.49;26.05
2785;BME280;57944;48.722;9.316;2023-04-06T11:12:06;98233.94;;;16.94;25.80
2785;BME280;57944;48.722;9.316;2023-04-06T11:14:36;98237.94;;;15.59;26.02
2785;BME280;57944;48.722;9.316;2023-04-06T11:17:07;98229.13;;;15.36;28.04
2785;BME280;57944;48.722;9.316;2023-04-06T11:19:37;98225.53;;;15.07;28.21
2785;BME280;57944;48.722;9.316;2023-04-06T11:22:10;98229.47;;;15.89;26.82
2785;BME280;57944;48.722;9.316;2023-04-06T11:24:40;98225.06;;;17.42;25.18
2785;BME280;57944;48.722;9.316;2023-04-06T11:27:10;98230.91;;;19.01;23.80
2785;BME280;57944;48.722;9.316;2023-04-06T11:29:42;98220.75;;;19.93;22.28
2785;BME280;57944;48.722;9.316;2023-04-06T11:32:20;98216.06;;;20.59;21.48
2785;BME280;57944;48.722;9.316;2023-04-06T11:34:52;98218.50;;;22.00;20.24
2785;BME280;57944;48.722;9.316;2023-04-06T11:37:26;98218.50;;;22.36;20.26
2785;BME280;57944;48.722;9.316;2023-04-06T11:39:56;98217.25;;;23.09;19.79
2785;BME280;57944;48.722;9.316;2023-04-06T11:42:28;98207.88;;;23.62;19.28
2785;BME280;57944;48.722;9.316;2023-04-06T11:44:58;98205.53;;;21.70;20.74
2785;BME280;57944;48.722;9.316;2023-04-06T11:47:30;98201.06;;;20.71;22.20
2785;BME280;57944;48.722;9.316;2023-04-06T11:50:06;98194.72;;;19.77;22.04
2785;BME280;57944;48.722;9.316;2023-04-06T11:52:41;98198.56;;;20.44;21.92
2785;BME280;57944;48.722;9.316;2023-04-06T11:55:14;98189.13;;;19.31;21.69
2785;BME280;57944;48.722;9.316;2023-04-06T11:57:44;98186.50;;;19.04;22.52
2785;BME280;57944;48.722;9.316;2023-04-06T12:00:17;98192.97;;;18.46;22.34
2785;BME280;57944;48.722;9.316;2023-04-06T12:02:48;98185.53;;;18.88;21.96
2785;BME280;57944;48.722;9.316;2023-04-06T12:05:19;98189.41;;;20.69;21.19
2785;BME280;57944;48.722;9.316;2023-04-06T12:07:52;98194.00;;;21.25;20.21
2785;BME280;57944;48.722;9.316;2023-04-06T12:10:27;98186.19;;;20.51;20.99
2785;BME280;57944;48.722;9.316;2023-04-06T12:12:57;98180.94;;;19.99;21.40
2785;BME280;57944;48.722;9.316;2023-04-06T12:15:27;98177.97;;;20.60;21.02
2785;BME280;57944;48.722;9.316;2023-04-06T12:17:57;98180.28;;;20.19;21.67
2785;BME280;57944;48.722;9.316;2023-04-06T12:20:27;98171.78;;;21.64;19.15
2785;BME280;57944;48.722;9.316;2023-04-06T12:23:00;98182.44;;;22.19;19.30
2785;BME280;57944;48.722;9.316;2023-04-06T12:25:30;98180.34;;;22.26;19.10
2785;BME280;57944;48.722;9.316;2023-04-06T12:28:00;98175.97;;;22.92;18.21
2785;BME280;57944;48.722;9.316;2023-04-06T12:30:30;98164.31;;;23.34;18.37
2785;BME280;57944;48.722;9.316;2023-04-06T12:33:01;98153.03;;;23.09;17.67
2785;BME280;57944;48.722;9.316;2023-04-06T12:35:33;98156.75;;;21.61;18.85
2785;BME280;57944;48.722;9.316;2023-04-06T12:38:06;98152.56;;;19.50;20.23
2785;BME280;57944;48.722;9.316;2023-04-06T12:40:37;98152.50;;;18.90;20.67
2785;BME280;57944;48.722;9.316;2023-04-06T12:43:13;98145.66;;;17.10;22.44
2785;BME280;57944;48.722;9.316;2023-04-06T12:45:44;98144.16;;;16.74;22.70
2785;BME280;57944;48.722;9.316;2023-04-06T12:48:14;98149.66;;;16.66;24.02
2785;BME280;57944;48.722;9.316;2023-04-06T12:50:44;98141.09;;;16.37;23.13
2785;BME280;57944;48.722;9.316;2023-04-06T12:53:17;98132.25;;;15.97;24.11
2785;BME280;57944;48.722;9.316;2023-04-06T12:55:47;98133.81;;;15.45;23.70
2785;BME280;57944;48.722;9.316;2023-04-06T12:58:17;98135.56;;;14.84;24.78
2785;BME280;57944;48.722;9.316;2023-04-06T13:00:48;98131.44;;;14.83;23.74
2785;BME280;57944;48.722;9.316;2023-04-06T13:03:19;98137.19;;;14.78;24.31
2785;BME280;57944;48.722;9.316;2023-04-06T13:05:50;98135.59;;;15.14;22.27
2785;BME280;57944;48.722;9.316;2023-04-06T13:08:23;98132.47;;;15.96;22.24
2785;BME280;57944;48.722;9.316;2023-04-06T13:10:54;98126.16;;;16.86;20.90
2785;BME280;57944;48.722;9.316;2023-04-06T13:13:26;98141.44;;;18.73;19.93
2785;BME280;57944;48.722;9.316;2023-04-06T13:15:59;98135.03;;;18.97;18.98
2785;BME280;57944;48.722;9.316;2023-04-06T13:18:31;98131.09;;;20.56;18.22
2785;BME280;57944;48.722;9.316;2023-04-06T13:21:02;98132.19;;;20.81;18.81
2785;BME280;57944;48.722;9.316;2023-04-06T13:23:35;98129.63;;;22.60;17.63
2785;BME280;57944;48.722;9.316;2023-04-06T13:26:06;98125.09;;;21.80;17.61
2785;BME280;57944;48.722;9.316;2023-04-06T13:28:37;98121.47;;;21.86;17.16
2785;BME280;57944;48.722;9.316;2023-04-06T13:31:08;98117.53;;;21.22;17.70
2785;BME280;57944;48.722;9.316;2023-04-06T13:33:38;98125.09;;;21.70;17.24
2785;BME280;57944;48.722;9.316;2023-04-06T13:36:09;98111.03;;;21.14;18.29
2785;BME280;57944;48.722;9.316;2023-04-06T13:38:46;98118.31;;;21.12;18.29
2785;BME280;57944;48.722;9.316;2023-04-06T13:41:20;98109.97;;;21.00;18.79
2785;BME280;57944;48.722;9.316;2023-04-06T13:43:51;98110.03;;;21.20;18.71